sensor_id;sensor_type;location;lat;lon;timestamp;P1;durP1;ratioP1;P2;durP2;ratioP2
40945;SDS011;55635;50.264;11.918;2024-02-14T00:01:28;17.23;;;8.13;;
40945;SDS011;55635;50.264;11.918;2024-02-14T00:04:09;12.27;;;6.80;;
40945;SDS011;55635;50.264;11.918;2024-02-14T00:06:51;15.02;;;7.22;;
40945;SDS011;55635;50.264;11.918;2024-02-14T00:09:33;9.45;;;6.28;;
40945;SDS011;55635;50.264;11.918;2024-02-14T00:12:15;13.93;;;7.25;;
40945;SDS011;55635;50.264;11.918;2024-02-14T00:14:56;10.52;;;6.85;;
40945;SDS011;55635;50.264;11.918;2024-02-14T00:17:38;12.80;;;7.80;;
40945;SDS011;55635;50.264;11.918;2024-02-14T00:20:19;14.45;;;7.63;;
40945;SDS011;55635;50.264;11.918;2024-02-14T00:23:00;9.93;;;7.55;;
40945;SDS011;55635;50.264;11.918;2024-02-14T00:25:42;15.18;;;7.45;;
40945;SDS011;55635;50.264;11.918;2024-02-14T00:28:23;13.07;;;7.75;;
40945;SDS011;55635;50.264;11.918;2024-02-14T00:31:06;12.85;;;6.55;;
40945;SDS011;55635;50.264;11.918;2024-02-14T00:33:47;13.00;;;7.32;;
40945;SDS011;55635;50.264;11.918;2024-02-14T00:36:28;9.32;;;6.95;;
40945;SDS011;55635;50.264;11.918;2024-02-14T00:39:09;10.80;;;7.32;;
40945;SDS011;55635;50.264;11.918;2024-02-14T00:41:50;11.88;;;7.60;;
40945;SDS011;55635;50.264;11.918;2024-02-14T00:44:33;16.15;;;7.55;;
40945;SDS011;55635;50.264;11.918;2024-02-14T00:47:14;16.42;;;7.15;;
40945;SDS011;55635;50.264;11.918;2024-02-14T00:49:54;11.05;;;6.75;;
40945;SDS011;55635;50.264;11.918;2024-02-14T00:52:36;11.35;;;6.95;;
40945;SDS011;55635;50.264;11.918;2024-02-14T00:55:18;13.02;;;7.10;;
40945;SDS011;55635;50.264;11.918;2024-02-14T00:57:59;13.80;;;8.02;;
40945;SDS011;55635;50.264;11.918;2024-02-14T01:00:40;14.57;;;7.25;;
40945;SDS011;55635;50.264;11.918;2024-02-14T01:03:21;11.82;;;6.53;;
40945;SDS011;55635;50.264;11.918;2024-02-14T01:06:02;9.52;;;6.28;;
40945;SDS011;55635;50.264;11.918;2024-02-14T01:08:44;14.43;;;7.40;;
40945;SDS011;55635;50.264;11.918;2024-02-14T01:11:25;8.60;;;6.30;;
40945;SDS011;55635;50.264;11.918;2024-02-14T01:14:06;12.27;;;6.95;;
40945;SDS011;55635;50.264;11.918;2024-02-14T01:16:47;10.63;;;6.68;;
40945;SDS011;55635;50.264;11.918;2024-02-14T01:19:29;9.48;;;6.65;;
40945;SDS011;55635;50.264;11.918;2024-02-14T01:22:10;14.20;;;7.22;;
40945;SDS011;55635;50.264;11.918;2024-02-14T01:24:51;13.07;;;7.35;;
40945;SDS011;55635;50.264;11.918;2024-02-14T01:27:32;13.18;;;7.20;;
40945;SDS011;55635;50.264;11.918;2024-02-14T01:30:13;11.85;;;7.47;;
40945;SDS011;55635;50.264;11.918;2024-02-14T01:32:54;10.70;;;6.70;;
40945;SDS011;55635;50.264;11.918;2024-02-14T01:35:36;9.63;;;5.82;;
40945;SDS011;55635;50.264;11.918;2024-02-14T01:38:17;12.20;;;6.75;;
40945;SDS011;55635;50.264;11.918;2024-02-14T01:40:58;13.48;;;6.20;;
40945;SDS011;55635;50.264;11.918;2024-02-14T01:43:39;10.73;;;5.57;;
40945;SDS011;55635;50.264;11.918;2024-02-14T01:46:20;9.80;;;5.05;;
40945;SDS011;55635;50.264;11.918;2024-02-14T01:49:01;6.60;;;4.75;;
40945;SDS011;55635;50.264;11.918;2024-02-14T01:51:43;7.35;;;5.00;;
40945;SDS011;55635;50.264;11.918;2024-02-14T01:54:26;5.70;;;4.22;;
40945;SDS011;55635;50.264;11.918;2024-02-14T01:57:08;8.15;;;4.78;;
40945;SDS011;55635;50.264;11.918;2024-02-14T01:59:51;11.55;;;5.40;;
40945;SDS011;55635;50.264;11.918;2024-02-14T02:02:35;7.60;;;4.80;;
40945;SDS011;55635;50.264;11.918;2024-02-14T02:05:24;7.32;;;5.25;;
40945;SDS011;55635;50.264;11.918;2024-02-14T02:08:07;6.53;;;4.35;;
40945;SDS011;55635;50.264;11.918;2024-02-14T02:10:49;9.35;;;3.92;;
40945;SDS011;55635;50.264;11.918;2024-02-14T02:13:30;6.32;;;4.53;;
40945;SDS011;55635;50.264;11.918;2024-02-14T02:16:11;5.72;;;4.60;;
40945;SDS011;55635;50.264;11.918;2024-02-14T02:18:55;9.25;;;4.32;;
40945;SDS011;55635;50.264;11.918;2024-02-14T02:21:36;7.22;;;4.60;;
40945;SDS011;55635;50.264;11.918;2024-02-14T02:24:17;7.63;;;4.35;;
40945;SDS011;55635;50.264;11.918;2024-02-14T02:26:59;6.68;;;4.55;;
40945;SDS011;55635;50.264;11.918;2024-02-14T02:29:40;5.70;;;3.67;;
40945;SDS011;55635;50.264;11.918;2024-02-14T02:32:21;10.63;;;4.55;;
40945;SDS011;55635;50.264;11.918;2024-02-14T02:35:02;5.97;;;4.20;;
40945;SDS011;55635;50.264;11.918;2024-02-14T02:37:44;6.30;;;4.55;;
40945;SDS011;55635;50.264;11.918;2024-02-14T02:40:26;6.53;;;5.32;;
40945;SDS011;55635;50.264;11.918;2024-02-14T02:43:07;11.18;;;5.35;;
40945;SDS011;55635;50.264;11.918;2024-02-14T02:45:50;8.27;;;5.38;;
40945;SDS011;55635;50.264;11.918;2024-02-14T02:48:31;8.18;;;4.80;;
40945;SDS011;55635;50.264;11.918;2024-02-14T02:51:15;10.38;;;5.32;;
40945;SDS011;55635;50.264;11.918;2024-02-14T02:53:58;9.05;;;5.10;;
40945;SDS011;55635;50.264;11.918;2024-02-14T02:56:39;8.55;;;5.03;;
40945;SDS011;55635;50.264;11.918;2024-02-14T02:59:21;7.30;;;4.82;;
40945;SDS011;55635;50.264;11.918;2024-02-14T03:02:02;8.20;;;5.22;;
40945;SDS011;55635;50.264;11.918;2024-02-14T03:04:47;6.97;;;4.55;;
40945;SDS011;55635;50.264;11.918;2024-02-14T03:07:28;7.93;;;5.00;;
40945;SDS011;55635;50.264;11.918;2024-02-14T03:10:09;14.95;;;4.78;;
40945;SDS011;55635;50.264;11.918;2024-02-14T03:12:50;7.32;;;4.30;;
40945;SDS011;55635;50.264;11.918;2024-02-14T03:15:32;6.63;;;3.92;;
40945;SDS011;55635;50.264;11.918;2024-02-14T03:18:13;5.88;;;4.18;;
40945;SDS011;55635;50.264;11.918;2024-02-14T03:20:54;6.85;;;4.32;;
40945;SDS011;55635;50.264;11.918;2024-02-14T03:23:34;4.25;;;3.78;;
40945;SDS011;55635;50.264;11.918;2024-02-14T03:26:16;6.45;;;4.00;;
40945;SDS011;55635;50.264;11.918;2024-02-14T03:28:56;4.50;;;3.42;;
40945;SDS011;55635;50.264;11.918;2024-02-14T03:31:37;7.00;;;3.17;;
40945;SDS011;55635;50.264;11.918;2024-02-14T03:34:19;4.93;;;3.20;;
40945;SDS011;55635;50.264;11.918;2024-02-14T03:37:01;6.88;;;3.30;;
40945;SDS011;55635;50.264;11.918;2024-02-14T03:39:42;3.88;;;2.95;;
40945;SDS011;55635;50.264;11.918;2024-02-14T03:42:25;3.33;;;2.65;;
40945;SDS011;55635;50.264;11.918;2024-02-14T03:45:07;3.97;;;2.80;;
40945;SDS011;55635;50.264;11.918;2024-02-14T03:47:48;4.68;;;3.08;;
40945;SDS011;55635;50.264;11.918;2024-02-14T03:50:30;4.35;;;2.97;;
40945;SDS011;55635;50.264;11.918;2024-02-14T03:53:12;2.88;;;2.53;;
40945;SDS011;55635;50.264;11.918;2024-02-14T03:55:54;2.70;;;2.50;;
40945;SDS011;55635;50.264;11.918;2024-02-14T03:58:36;3.22;;;2.70;;
40945;SDS011;55635;50.264;11.918;2024-02-14T04:01:17;6.20;;;3.05;;
40945;SDS011;55635;50.264;11.918;2024-02-14T04:03:59;5.75;;;2.95;;
40945;SDS011;55635;50.264;11.918;2024-02-14T04:06:41;3.95;;;2.65;;
40945;SDS011;55635;50.264;11.918;2024-02-14T04:09:24;6.38;;;2.65;;
40945;SDS011;55635;50.264;11.918;2024-02-14T04:12:05;5.15;;;2.72;;
40945;SDS011;55635;50.264;11.918;2024-02-14T04:14:47;3.75;;;2.80;;
40945;SDS011;55635;50.264;11.918;2024-02-14T04:17:28;6.00;;;2.90;;
40945;SDS011;55635;50.264;11.918;2024-02-14T04:20:09;5.38;;;2.97;;
40945;SDS011;55635;50.264;11.918;2024-02-14T04:22:51;3.33;;;2.75;;
40945;SDS011;55635;50.264;11.918;2024-02-14T04:25:32;4.28;;;2.50;;
40945;SDS011;55635;50.264;11.918;2024-02-14T04:28:14;3.97;;;1.63;;
40945;SDS011;55635;50.264;11.918;2024-02-14T04:30:55;2.72;;;1.65;;
40945;SDS011;55635;50.264;11.918;2024-02-14T04:33:36;3.05;;;1.50;;
40945;SDS011;55635;50.264;11.918;2024-02-14T04:36:18;3.67;;;1.77;;
40945;SDS011;55635;50.264;11.918;2024-02-14T04:39:00;2.83;;;1.77;;
40945;SDS011;55635;50.264;11.918;2024-02-14T04:41:41;6.10;;;1.92;;
40945;SDS011;55635;50.264;11.918;2024-02-14T04:44:22;2.50;;;2.20;;
40945;SDS011;55635;50.264;11.918;2024-02-14T04:47:03;4.65;;;1.80;;
40945;SDS011;55635;50.264;11.918;2024-02-14T04:49:44;4.43;;;2.20;;
40945;SDS011;55635;50.264;11.918;2024-02-14T04:52:25;2.13;;;1.90;;
40945;SDS011;55635;50.264;11.918;2024-02-14T04:55:07;3.75;;;2.03;;
40945;SDS011;55635;50.264;11.918;2024-02-14T04:57:48;2.38;;;2.17;;
40945;SDS011;55635;50.264;11.918;2024-02-14T05:00:30;5.72;;;2.25;;
40945;SDS011;55635;50.264;11.918;2024-02-14T05:03:10;3.58;;;2.33;;
40945;SDS011;55635;50.264;11.918;2024-02-14T05:05:52;1.60;;;1.42;;
40945;SDS011;55635;50.264;11.918;2024-02-14T05:08:33;2.22;;;2.00;;
40945;SDS011;55635;50.264;11.918;2024-02-14T05:11:14;3.88;;;2.35;;
40945;SDS011;55635;50.264;11.918;2024-02-14T05:13:55;3.55;;;1.92;;
40945;SDS011;55635;50.264;11.918;2024-02-14T05:16:36;5.28;;;2.40;;
40945;SDS011;55635;50.264;11.918;2024-02-14T05:19:17;2.50;;;1.95;;
40945;SDS011;55635;50.264;11.918;2024-02-14T05:22:01;4.25;;;2.10;;
40945;SDS011;55635;50.264;11.918;2024-02-14T05:24:42;3.65;;;2.00;;
40945;SDS011;55635;50.264;11.918;2024-02-14T05:27:23;4.03;;;1.63;;
40945;SDS011;55635;50.264;11.918;2024-02-14T05:30:04;4.90;;;2.30;;
40945;SDS011;55635;50.264;11.918;2024-02-14T05:32:46;3.47;;;1.40;;
40945;SDS011;55635;50.264;11.918;2024-02-14T05:35:27;1.65;;;1.00;;
40945;SDS011;55635;50.264;11.918;2024-02-14T05:38:08;1.92;;;1.45;;
40945;SDS011;55635;50.264;11.918;2024-02-14T05:40:49;3.08;;;1.80;;
40945;SDS011;55635;50.264;11.918;2024-02-14T05:43:30;4.60;;;1.40;;
40945;SDS011;55635;50.264;11.918;2024-02-14T05:46:11;2.97;;;1.23;;
40945;SDS011;55635;50.264;11.918;2024-02-14T05:48:52;2.42;;;1.30;;
40945;SDS011;55635;50.264;11.918;2024-02-14T05:51:33;4.05;;;2.00;;
40945;SDS011;55635;50.264;11.918;2024-02-14T05:54:14;3.53;;;1.33;;
40945;SDS011;55635;50.264;11.918;2024-02-14T05:56:55;2.42;;;1.48;;
40945;SDS011;55635;50.264;11.918;2024-02-14T05:59:37;5.18;;;2.05;;
40945;SDS011;55635;50.264;11.918;2024-02-14T06:02:18;2.50;;;1.40;;
40945;SDS011;55635;50.264;11.918;2024-02-14T06:04:59;2.78;;;2.05;;
40945;SDS011;55635;50.264;11.918;2024-02-14T06:07:40;3.83;;;1.60;;
40945;SDS011;55635;50.264;11.918;2024-02-14T06:10:21;5.80;;;1.95;;
40945;SDS011;55635;50.264;11.918;2024-02-14T06:13:05;1.92;;;1.42;;
40945;SDS011;55635;50.264;11.918;2024-02-14T06:15:46;2.40;;;1.48;;
40945;SDS011;55635;50.264;11.918;2024-02-14T06:18:28;3.17;;;1.63;;
40945;SDS011;55635;50.264;11.918;2024-02-14T06:21:08;3.03;;;1.80;;
40945;SDS011;55635;50.264;11.918;2024-02-14T06:23:50;4.78;;;1.70;;
40945;SDS011;55635;50.264;11.918;2024-02-14T06:26:31;3.58;;;1.50;;
40945;SDS011;55635;50.264;11.918;2024-02-14T06:29:13;4.90;;;1.60;;
40945;SDS011;55635;50.264;11.918;2024-02-14T06:31:54;4.05;;;1.90;;
40945;SDS011;55635;50.264;11.918;2024-02-14T06:34:35;2.03;;;1.50;;
40945;SDS011;55635;50.264;11.918;2024-02-14T06:37:15;4.38;;;2.20;;
40945;SDS011;55635;50.264;11.918;2024-02-14T06:39:56;6.05;;;2.10;;
40945;SDS011;55635;50.264;11.918;2024-02-14T06:42:38;2.90;;;1.38;;
40945;SDS011;55635;50.264;11.918;2024-02-14T06:45:19;3.45;;;1.50;;
40945;SDS011;55635;50.264;11.918;2024-02-14T06:48:00;5.80;;;1.98;;
40945;SDS011;55635;50.264;11.918;2024-02-14T06:50:41;2.45;;;1.75;;
40945;SDS011;55635;50.264;11.918;2024-02-14T06:53:22;2.47;;;1.70;;
40945;SDS011;55635;50.264;11.918;2024-02-14T06:56:03;3.78;;;1.98;;
40945;SDS011;55635;50.264;11.918;2024-02-14T06:58:44;2.53;;;1.67;;
40945;SDS011;55635;50.264;11.918;2024-02-14T07:01:26;4.28;;;1.80;;
40945;SDS011;55635;50.264;11.918;2024-02-14T07:04:07;3.95;;;1.83;;
40945;SDS011;55635;50.264;11.918;2024-02-14T07:06:48;3.13;;;1.70;;
40945;SDS011;55635;50.264;11.918;2024-02-14T07:09:29;4.22;;;2.00;;
40945;SDS011;55635;50.264;11.918;2024-02-14T07:12:10;6.57;;;1.98;;
40945;SDS011;55635;50.264;11.918;2024-02-14T07:14:51;3.88;;;1.90;;
40945;SDS011;55635;50.264;11.918;2024-02-14T07:17:32;8.70;;;2.40;;
40945;SDS011;55635;50.264;11.918;2024-02-14T07:20:13;4.32;;;2.03;;
40945;SDS011;55635;50.264;11.918;2024-02-14T07:22:55;4.15;;;1.80;;
40945;SDS011;55635;50.264;11.918;2024-02-14T07:25:36;6.13;;;2.80;;
40945;SDS011;55635;50.264;11.918;2024-02-14T07:28:18;3.80;;;1.90;;
40945;SDS011;55635;50.264;11.918;2024-02-14T07:30:59;2.40;;;1.70;;
40945;SDS011;55635;50.264;11.918;2024-02-14T07:33:40;5.18;;;1.95;;
40945;SDS011;55635;50.264;11.918;2024-02-14T07:36:21;4.15;;;1.70;;
40945;SDS011;55635;50.264;11.918;2024-02-14T07:39:02;4.50;;;1.92;;
40945;SDS011;55635;50.264;11.918;2024-02-14T07:41:43;5.93;;;1.92;;
40945;SDS011;55635;50.264;11.918;2024-02-14T07:44:24;3.25;;;1.73;;
40945;SDS011;55635;50.264;11.918;2024-02-14T07:47:05;5.22;;;1.98;;
40945;SDS011;55635;50.264;11.918;2024-02-14T07:49:46;2.47;;;1.80;;
40945;SDS011;55635;50.264;11.918;2024-02-14T07:52:27;5.63;;;1.63;;
40945;SDS011;55635;50.264;11.918;2024-02-14T07:55:08;2.75;;;1.67;;
40945;SDS011;55635;50.264;11.918;2024-02-14T07:57:51;3.72;;;1.80;;
40945;SDS011;55635;50.264;11.918;2024-02-14T08:00:32;2.42;;;1.58;;
40945;SDS011;55635;50.264;11.918;2024-02-14T08:03:13;4.35;;;1.70;;
40945;SDS011;55635;50.264;11.918;2024-02-14T08:05:54;5.28;;;2.15;;
40945;SDS011;55635;50.264;11.918;2024-02-14T08:08:35;4.35;;;1.88;;
40945;SDS011;55635;50.264;11.918;2024-02-14T08:11:16;4.55;;;1.80;;
40945;SDS011;55635;50.264;11.918;2024-02-14T08:13:57;3.17;;;1.75;;
40945;SDS011;55635;50.264;11.918;2024-02-14T08:16:40;4.72;;;1.52;;
40945;SDS011;55635;50.264;11.918;2024-02-14T08:19:21;2.47;;;1.60;;
40945;SDS011;55635;50.264;11.918;2024-02-14T08:22:01;5.15;;;1.88;;
40945;SDS011;55635;50.264;11.918;2024-02-14T08:24:43;5.40;;;1.63;;
40945;SDS011;55635;50.264;11.918;2024-02-14T08:27:24;3.70;;;2.00;;
40945;SDS011;55635;50.264;11.918;2024-02-14T08:30:06;2.45;;;1.48;;
40945;SDS011;55635;50.264;11.918;2024-02-14T08:32:48;5.97;;;1.90;;
40945;SDS011;55635;50.264;11.918;2024-02-14T08:35:29;3.95;;;1.40;;
40945;SDS011;55635;50.264;11.918;2024-02-14T08:38:10;3.70;;;1.60;;
40945;SDS011;55635;50.264;11.918;2024-02-14T08:40:51;2.80;;;2.00;;
40945;SDS011;55635;50.264;11.918;2024-02-14T08:43:32;12.65;;;2.22;;
40945;SDS011;55635;50.264;11.918;2024-02-14T08:46:13;3.63;;;1.58;;
40945;SDS011;55635;50.264;11.918;2024-02-14T08:48:57;5.80;;;1.85;;
40945;SDS011;55635;50.264;11.918;2024-02-14T08:51:42;4.03;;;1.98;;
40945;SDS011;55635;50.264;11.918;2024-02-14T08:54:24;5.15;;;2.13;;
40945;SDS011;55635;50.264;11.918;2024-02-14T08:57:05;3.55;;;1.70;;
40945;SDS011;55635;50.264;11.918;2024-02-14T08:59:46;4.85;;;1.80;;
40945;SDS011;55635;50.264;11.918;2024-02-14T09:02:28;3.67;;;1.90;;
40945;SDS011;55635;50.264;11.918;2024-02-14T09:05:09;3.28;;;2.10;;
40945;SDS011;55635;50.264;11.918;2024-02-14T09:07:50;9.30;;;2.15;;
40945;SDS011;55635;50.264;11.918;2024-02-14T09:10:31;4.43;;;2.15;;
40945;SDS011;55635;50.264;11.918;2024-02-14T09:13:12;4.43;;;2.33;;
40945;SDS011;55635;50.264;11.918;2024-02-14T09:15:53;3.22;;;2.42;;
40945;SDS011;55635;50.264;11.918;2024-02-14T09:18:34;6.18;;;2.05;;
40945;SDS011;55635;50.264;11.918;2024-02-14T09:21:15;4.50;;;2.55;;
40945;SDS011;55635;50.264;11.918;2024-02-14T09:23:56;5.20;;;1.98;;
40945;SDS011;55635;50.264;11.918;2024-02-14T09:26:38;5.47;;;2.20;;
40945;SDS011;55635;50.264;11.918;2024-02-14T09:29:19;3.47;;;2.33;;
40945;SDS011;55635;50.264;11.918;2024-02-14T09:32:00;5.55;;;2.33;;
40945;SDS011;55635;50.264;11.918;2024-02-14T09:34:41;4.63;;;2.65;;
40945;SDS011;55635;50.264;11.918;2024-02-14T09:37:22;5.93;;;3.75;;
40945;SDS011;55635;50.264;11.918;2024-02-14T09:40:04;4.28;;;2.40;;
40945;SDS011;55635;50.264;11.918;2024-02-14T09:42:50;4.13;;;1.98;;
40945;SDS011;55635;50.264;11.918;2024-02-14T09:45:35;7.70;;;3.05;;
40945;SDS011;55635;50.264;11.918;2024-02-14T09:48:20;5.82;;;2.83;;
40945;SDS011;55635;50.264;11.918;2024-02-14T09:51:02;6.63;;;2.92;;
40945;SDS011;55635;50.264;11.918;2024-02-14T09:53:43;5.82;;;3.20;;
40945;SDS011;55635;50.264;11.918;2024-02-14T09:56:25;3.50;;;2.60;;
40945;SDS011;55635;50.264;11.918;2024-02-14T09:59:07;6.25;;;2.85;;
40945;SDS011;55635;50.264;11.918;2024-02-14T10:01:48;7.15;;;2.63;;
40945;SDS011;55635;50.264;11.918;2024-02-14T10:04:31;6.55;;;3.05;;
40945;SDS011;55635;50.264;11.918;2024-02-14T10:07:12;9.27;;;3.22;;
40945;SDS011;55635;50.264;11.918;2024-02-14T10:09:53;6.80;;;2.75;;
40945;SDS011;55635;50.264;11.918;2024-02-14T10:12:34;5.03;;;2.90;;
40945;SDS011;55635;50.264;11.918;2024-02-14T10:15:15;6.47;;;3.08;;
40945;SDS011;55635;50.264;11.918;2024-02-14T10:18:00;8.10;;;3.33;;
40945;SDS011;55635;50.264;11.918;2024-02-14T10:20:55;5.93;;;3.28;;
40945;SDS011;55635;50.264;11.918;2024-02-14T10:23:37;5.03;;;3.05;;
40945;SDS011;55635;50.264;11.918;2024-02-14T10:26:20;5.90;;;3.20;;
40945;SDS011;55635;50.264;11.918;2024-02-14T10:29:01;6.30;;;2.78;;
40945;SDS011;55635;50.264;11.918;2024-02-14T10:31:41;4.50;;;3.15;;
40945;SDS011;55635;50.264;11.918;2024-02-14T10:34:25;4.78;;;3.20;;
40945;SDS011;55635;50.264;11.918;2024-02-14T10:37:07;5.93;;;2.78;;
40945;SDS011;55635;50.264;11.918;2024-02-14T10:39:49;6.88;;;2.65;;
40945;SDS011;55635;50.264;11.918;2024-02-14T10:42:32;3.83;;;2.95;;
40945;SDS011;55635;50.264;11.918;2024-02-14T10:45:13;3.83;;;3.20;;
40945;SDS011;55635;50.264;11.918;2024-02-14T10:47:55;4.38;;;2.95;;
40945;SDS011;55635;50.264;11.918;2024-02-14T10:50:41;4.10;;;3.50;;
40945;SDS011;55635;50.264;11.918;2024-02-14T10:53:23;7.75;;;3.67;;
40945;SDS011;55635;50.264;11.918;2024-02-14T10:56:06;7.82;;;4.22;;
40945;SDS011;55635;50.264;11.918;2024-02-14T10:58:47;6.30;;;3.30;;
40945;SDS011;55635;50.264;11.918;2024-02-14T11:01:29;4.78;;;3.70;;
40945;SDS011;55635;50.264;11.918;2024-02-14T11:04:12;10.10;;;3.63;;
40945;SDS011;55635;50.264;11.918;2024-02-14T11:06:54;4.05;;;3.25;;
40945;SDS011;55635;50.264;11.918;2024-02-14T11:09:37;8.25;;;3.13;;
40945;SDS011;55635;50.264;11.918;2024-02-14T11:12:22;6.72;;;3.17;;
40945;SDS011;55635;50.264;11.918;2024-02-14T11:15:11;8.95;;;3.45;;
40945;SDS011;55635;50.264;11.918;2024-02-14T11:18:04;7.28;;;4.10;;
40945;SDS011;55635;50.264;11.918;2024-02-14T11:20:48;8.32;;;3.85;;
40945;SDS011;55635;50.264;11.918;2024-02-14T11:23:29;6.28;;;3.92;;
40945;SDS011;55635;50.264;11.918;2024-02-14T11:26:15;6.57;;;3.90;;
40945;SDS011;55635;50.264;11.918;2024-02-14T11:28:59;3.95;;;3.25;;
40945;SDS011;55635;50.264;11.918;2024-02-14T11:31:46;11.80;;;7.78;;
40945;SDS011;55635;50.264;11.918;2024-02-14T11:34:31;6.05;;;3.50;;
40945;SDS011;55635;50.264;11.918;2024-02-14T11:37:15;7.28;;;4.45;;
40945;SDS011;55635;50.264;11.918;2024-02-14T11:40:00;9.55;;;3.80;;
40945;SDS011;55635;50.264;11.918;2024-02-14T11:42:42;7.13;;;3.72;;
40945;SDS011;55635;50.264;11.918;2024-02-14T11:45:23;7.57;;;3.67;;
40945;SDS011;55635;50.264;11.918;2024-02-14T11:48:05;8.40;;;3.65;;
40945;SDS011;55635;50.264;11.918;2024-02-14T11:50:46;5.22;;;3.60;;
40945;SDS011;55635;50.264;11.918;2024-02-14T11:53:27;5.50;;;3.33;;
40945;SDS011;55635;50.264;11.918;2024-02-14T11:56:09;4.95;;;3.70;;
40945;SDS011;55635;50.264;11.918;2024-02-14T11:58:49;5.72;;;3.75;;
40945;SDS011;55635;50.264;11.918;2024-02-14T12:01:31;6.15;;;3.33;;
40945;SDS011;55635;50.264;11.918;2024-02-14T12:04:13;8.88;;;3.78;;
40945;SDS011;55635;50.264;11.918;2024-02-14T12:06:55;4.88;;;4.10;;
40945;SDS011;55635;50.264;11.918;2024-02-14T12:09:36;7.40;;;3.67;;
40945;SDS011;55635;50.264;11.918;2024-02-14T12:12:17;5.85;;;3.65;;
40945;SDS011;55635;50.264;11.918;2024-02-14T12:14:59;8.15;;;4.05;;
40945;SDS011;55635;50.264;11.918;2024-02-14T12:17:42;4.10;;;3.70;;
40945;SDS011;55635;50.264;11.918;2024-02-14T12:20:24;5.05;;;3.58;;
40945;SDS011;55635;50.264;11.918;2024-02-14T12:23:05;6.18;;;3.80;;
40945;SDS011;55635;50.264;11.918;2024-02-14T12:25:47;3.80;;;3.40;;
40945;SDS011;55635;50.264;11.918;2024-02-14T12:28:28;5.63;;;3.95;;
40945;SDS011;55635;50.264;11.918;2024-02-14T12:31:21;7.10;;;3.53;;
40945;SDS011;55635;50.264;11.918;2024-02-14T12:34:03;6.03;;;3.53;;
40945;SDS011;55635;50.264;11.918;2024-02-14T12:36:47;7.22;;;3.95;;
40945;SDS011;55635;50.264;11.918;2024-02-14T12:39:28;4.65;;;3.47;;
40945;SDS011;55635;50.264;11.918;2024-02-14T12:42:09;4.65;;;3.83;;
40945;SDS011;55635;50.264;11.918;2024-02-14T12:44:51;6.43;;;3.67;;
40945;SDS011;55635;50.264;11.918;2024-02-14T12:47:34;4.05;;;3.65;;
40945;SDS011;55635;50.264;11.918;2024-02-14T12:50:15;4.78;;;3.72;;
40945;SDS011;55635;50.264;11.918;2024-02-14T12:52:56;4.38;;;3.97;;
40945;SDS011;55635;50.264;11.918;2024-02-14T12:55:37;7.65;;;3.75;;
40945;SDS011;55635;50.264;11.918;2024-02-14T12:58:18;9.25;;;3.70;;
40945;SDS011;55635;50.264;11.918;2024-02-14T13:00:59;6.32;;;4.00;;
40945;SDS011;55635;50.264;11.918;2024-02-14T13:03:41;5.57;;;3.67;;
40945;SDS011;55635;50.264;11.918;2024-02-14T13:06:22;7.20;;;4.00;;
40945;SDS011;55635;50.264;11.918;2024-02-14T13:09:03;5.75;;;3.95;;
40945;SDS011;55635;50.264;11.918;2024-02-14T13:11:46;4.13;;;3.72;;
40945;SDS011;55635;50.264;11.918;2024-02-14T13:14:26;4.88;;;3.88;;
40945;SDS011;55635;50.264;11.918;2024-02-14T13:17:08;4.82;;;3.67;;
40945;SDS011;55635;50.264;11.918;2024-02-14T13:19:51;8.60;;;4.60;;
40945;SDS011;55635;50.264;11.918;2024-02-14T13:22:33;5.72;;;3.85;;
40945;SDS011;55635;50.264;11.918;2024-02-14T13:25:14;11.23;;;4.43;;
40945;SDS011;55635;50.264;11.918;2024-02-14T13:27:55;7.82;;;3.63;;
40945;SDS011;55635;50.264;11.918;2024-02-14T13:30:37;4.93;;;3.67;;
40945;SDS011;55635;50.264;11.918;2024-02-14T13:33:19;7.18;;;3.67;;
40945;SDS011;55635;50.264;11.918;2024-02-14T13:36:00;7.03;;;3.92;;
40945;SDS011;55635;50.264;11.918;2024-02-14T13:38:41;9.73;;;4.00;;
40945;SDS011;55635;50.264;11.918;2024-02-14T13:41:24;7.93;;;4.10;;
40945;SDS011;55635;50.264;11.918;2024-02-14T13:44:08;8.93;;;4.40;;
40945;SDS011;55635;50.264;11.918;2024-02-14T13:46:50;4.82;;;3.90;;
40945;SDS011;55635;50.264;11.918;2024-02-14T13:49:32;11.82;;;4.70;;
40945;SDS011;55635;50.264;11.918;2024-02-14T13:52:13;10.35;;;4.07;;
40945;SDS011;55635;50.264;11.918;2024-02-14T13:54:55;6.93;;;4.22;;
40945;SDS011;55635;50.264;11.918;2024-02-14T13:57:37;9.77;;;4.00;;
40945;SDS011;55635;50.264;11.918;2024-02-14T14:00:21;5.95;;;3.72;;
40945;SDS011;55635;50.264;11.918;2024-02-14T14:03:02;9.40;;;4.32;;
40945;SDS011;55635;50.264;11.918;2024-02-14T14:05:43;4.78;;;3.70;;
40945;SDS011;55635;50.264;11.918;2024-02-14T14:08:24;6.53;;;3.97;;
40945;SDS011;55635;50.264;11.918;2024-02-14T14:11:05;5.50;;;3.83;;
40945;SDS011;55635;50.264;11.918;2024-02-14T14:13:48;7.53;;;4.45;;
40945;SDS011;55635;50.264;11.918;2024-02-14T14:16:29;6.35;;;4.25;;
40945;SDS011;55635;50.264;11.918;2024-02-14T14:19:10;7.85;;;4.65;;
40945;SDS011;55635;50.264;11.918;2024-02-14T14:21:51;6.75;;;4.82;;
40945;SDS011;55635;50.264;11.918;2024-02-14T14:24:32;7.03;;;4.82;;
40945;SDS011;55635;50.264;11.918;2024-02-14T14:27:13;8.18;;;4.20;;
40945;SDS011;55635;50.264;11.918;2024-02-14T14:29:55;10.25;;;4.60;;
40945;SDS011;55635;50.264;11.918;2024-02-14T14:32:36;5.65;;;4.35;;
40945;SDS011;55635;50.264;11.918;2024-02-14T14:35:19;5.65;;;4.15;;
40945;SDS011;55635;50.264;11.918;2024-02-14T14:38:00;7.95;;;4.32;;
40945;SDS011;55635;50.264;11.918;2024-02-14T14:40:40;10.93;;;4.40;;
40945;SDS011;55635;50.264;11.918;2024-02-14T14:43:21;9.23;;;4.90;;
40945;SDS011;55635;50.264;11.918;2024-02-14T14:46:02;6.20;;;4.15;;
40945;SDS011;55635;50.264;11.918;2024-02-14T14:48:43;7.85;;;4.50;;
40945;SDS011;55635;50.264;11.918;2024-02-14T14:51:26;6.38;;;4.40;;
40945;SDS011;55635;50.264;11.918;2024-02-14T14:54:07;7.45;;;4.88;;
40945;SDS011;55635;50.264;11.918;2024-02-14T14:56:52;6.55;;;4.20;;
40945;SDS011;55635;50.264;11.918;2024-02-14T14:59:34;7.03;;;4.55;;
40945;SDS011;55635;50.264;11.918;2024-02-14T15:02:16;9.35;;;5.00;;
40945;SDS011;55635;50.264;11.918;2024-02-14T15:04:57;5.38;;;4.60;;
40945;SDS011;55635;50.264;11.918;2024-02-14T15:07:38;6.10;;;4.75;;
40945;SDS011;55635;50.264;11.918;2024-02-14T15:10:20;7.57;;;4.53;;
40945;SDS011;55635;50.264;11.918;2024-02-14T15:13:01;10.38;;;6.28;;
40945;SDS011;55635;50.264;11.918;2024-02-14T15:15:43;14.00;;;7.78;;
40945;SDS011;55635;50.264;11.918;2024-02-14T15:18:25;10.30;;;7.00;;
40945;SDS011;55635;50.264;11.918;2024-02-14T15:21:06;13.45;;;7.90;;
40945;SDS011;55635;50.264;11.918;2024-02-14T15:23:47;8.13;;;5.78;;
40945;SDS011;55635;50.264;11.918;2024-02-14T15:26:28;10.43;;;5.05;;
40945;SDS011;55635;50.264;11.918;2024-02-14T15:29:10;7.80;;;5.20;;
40945;SDS011;55635;50.264;11.918;2024-02-14T15:32:10;7.00;;;5.63;;
40945;SDS011;55635;50.264;11.918;2024-02-14T15:35:09;6.70;;;3.45;;
40945;SDS011;55635;50.264;11.918;2024-02-14T15:37:50;6.60;;;4.55;;
40945;SDS011;55635;50.264;11.918;2024-02-14T15:40:33;6.65;;;4.72;;
40945;SDS011;55635;50.264;11.918;2024-02-14T15:43:15;7.55;;;5.35;;
40945;SDS011;55635;50.264;11.918;2024-02-14T15:45:56;5.70;;;4.00;;
40945;SDS011;55635;50.264;11.918;2024-02-14T15:48:38;8.25;;;5.28;;
40945;SDS011;55635;50.264;11.918;2024-02-14T15:51:21;4.43;;;3.45;;
40945;SDS011;55635;50.264;11.918;2024-02-14T15:54:03;3.40;;;3.10;;
40945;SDS011;55635;50.264;11.918;2024-02-14T15:56:44;4.40;;;3.30;;
40945;SDS011;55635;50.264;11.918;2024-02-14T15:59:25;6.28;;;4.03;;